createdAt,value
2022-08-25T00:01:10.300Z,74.50
2022-08-25T00:03:58.718Z,73.80
2022-08-25T00:06:46.741Z,74.70
2022-08-25T00:09:34.159Z,75.20
2022-08-25T00:12:20.322Z,75.70
2022-08-25T00:15:09.869Z,76.40
2022-08-25T00:17:55.755Z,76.40
2022-08-25T00:20:43.275Z,76.70
2022-08-25T00:23:35.372Z,77.20
2022-08-25T00:26:21.279Z,77.20
2022-08-25T00:29:08.152Z,77.90
2022-08-25T00:31:54.953Z,78.40
2022-08-25T00:34:41.253Z,78.10
2022-08-25T00:37:26.976Z,78.90
2022-08-25T00:40:12.849Z,79.00
2022-08-25T00:42:59.129Z,79.30
2022-08-25T00:45:44.741Z,79.40
2022-08-25T00:48:30.335Z,79.50
2022-08-25T00:51:25.870Z,80.40
2022-08-25T00:54:27.311Z,80.60
2022-08-25T00:57:16.857Z,81.60
2022-08-25T01:00:09.197Z,81.20
2022-08-25T01:02:56.826Z,82.20
2022-08-25T01:05:43.763Z,82.70
2022-08-25T01:08:32.340Z,82.80
2022-08-25T01:11:18.552Z,82.90
2022-08-25T01:14:07.095Z,83.50
2022-08-25T01:16:54.037Z,83.50
2022-08-25T01:19:40.032Z,83.20
2022-08-25T01:22:26.819Z,83.50
2022-08-25T01:25:26.854Z,83.90
2022-08-25T01:28:12.785Z,84.60
2022-08-25T01:30:58.727Z,84.10
2022-08-25T01:33:44.473Z,84.00
2022-08-25T01:36:31.160Z,84.80
2022-08-25T01:39:17.139Z,85.00
2022-08-25T01:42:19.027Z,85.20
2022-08-25T01:45:05.426Z,85.50
2022-08-25T01:47:51.015Z,85.50
2022-08-25T01:50:37.511Z,86.20
2022-08-25T01:53:29.783Z,85.00
2022-08-25T01:56:19.369Z,85.90
2022-08-25T01:59:05.422Z,86.00
2022-08-25T02:01:51.915Z,85.40
2022-08-25T02:04:45.836Z,85.80
2022-08-25T02:07:32.432Z,86.10
2022-08-25T02:10:18.316Z,86.80
2022-08-25T02:13:05.269Z,87.30
2022-08-25T02:15:56.788Z,88.40
2022-08-25T02:18:42.756Z,89.00
2022-08-25T02:21:28.650Z,89.00
2022-08-25T02:24:14.792Z,89.60
2022-08-25T02:27:00.295Z,89.00
2022-08-25T02:29:46.749Z,89.40
2022-08-25T02:32:32.336Z,89.80
2022-08-25T02:35:18.263Z,90.10
2022-08-25T02:38:05.141Z,90.30
2022-08-25T02:40:52.406Z,90.50
2022-08-25T02:43:38.098Z,90.80
2022-08-25T02:46:25.074Z,91.00
2022-08-25T02:49:11.216Z,91.30
2022-08-25T02:51:58.800Z,91.40
2022-08-25T02:54:44.678Z,91.60
2022-08-25T02:57:30.993Z,91.80
2022-08-25T03:00:17.438Z,92.00
2022-08-25T03:03:06.155Z,92.20
2022-08-25T03:05:52.173Z,92.20
2022-08-25T03:08:38.516Z,92.50
2022-08-25T03:11:25.592Z,92.50
2022-08-25T03:14:11.844Z,92.70
2022-08-25T03:16:57.698Z,92.70
2022-08-25T03:19:43.457Z,93.00
2022-08-25T03:22:29.589Z,93.20
2022-08-25T03:25:34.951Z,93.70
2022-08-25T03:28:21.211Z,93.40
2022-08-25T03:31:15.824Z,93.80
2022-08-25T03:34:02.085Z,93.90
2022-08-25T03:36:49.678Z,94.30
2022-08-25T03:39:35.462Z,94.70
2022-08-25T03:42:21.231Z,94.90
2022-08-25T03:45:08.208Z,95.00
2022-08-25T03:47:54.160Z,95.10
2022-08-25T03:50:50.629Z,95.30
2022-08-25T03:53:37.433Z,95.40
2022-08-25T03:56:23.442Z,95.70
2022-08-25T03:59:10.564Z,96.00
2022-08-25T04:01:56.492Z,96.20
2022-08-25T04:04:42.225Z,96.60
2022-08-25T04:07:28.415Z,96.50
2022-08-25T04:10:14.036Z,96.70
2022-08-25T04:13:00.096Z,97.00
2022-08-25T04:15:45.990Z,96.90
2022-08-25T04:18:31.926Z,97.20
2022-08-25T04:21:20.348Z,97.40
2022-08-25T04:24:08.610Z,97.30
2022-08-25T04:26:54.861Z,97.50
2022-08-25T04:29:40.794Z,97.70
2022-08-25T04:32:26.653Z,98.20
2022-08-25T04:35:12.609Z,98.50
2022-08-25T04:37:58.220Z,98.60
2022-08-25T04:40:44.042Z,98.90
2022-08-25T04:43:32.005Z,99.00
2022-08-25T04:46:23.848Z,99.40
2022-08-25T04:49:10.162Z,99.40
2022-08-25T04:51:57.557Z,99.50
2022-08-25T04:54:43.951Z,99.70
2022-08-25T04:57:29.771Z,99.70
2022-08-25T05:00:16.439Z,99.90
2022-08-25T05:03:03.931Z,99.90
2022-08-25T05:05:52.614Z,99.90
2022-08-25T05:08:38.304Z,99.90
2022-08-25T05:11:25.661Z,99.90
2022-08-25T05:14:15.058Z,99.80
2022-08-25T05:17:01.785Z,99.90
2022-08-25T05:19:47.587Z,99.80
2022-08-25T05:22:33.419Z,99.90
2022-08-25T05:25:19.333Z,99.70
2022-08-25T05:28:05.683Z,99.50
2022-08-25T05:30:51.636Z,99.70
2022-08-25T05:33:39.137Z,99.70
2022-08-25T05:36:26.846Z,99.90
2022-08-25T05:39:12.686Z,99.90
2022-08-25T05:41:58.218Z,99.90
2022-08-25T05:44:43.989Z,99.90
2022-08-25T05:47:29.835Z,98.70
2022-08-25T05:50:16.487Z,98.90
2022-08-25T05:53:02.752Z,98.90
2022-08-25T05:55:48.645Z,98.60
2022-08-25T05:58:35.492Z,97.80
2022-08-25T06:01:45.821Z,97.20
2022-08-25T06:04:32.488Z,96.90
2022-08-25T06:07:17.936Z,96.20
2022-08-25T06:10:06.794Z,96.00
2022-08-25T06:12:52.787Z,95.40
2022-08-25T06:15:38.727Z,95.30
2022-08-25T06:18:24.309Z,94.90
2022-08-25T06:21:13.331Z,94.70
2022-08-25T06:23:59.253Z,94.70
2022-08-25T06:26:45.696Z,94.40
2022-08-25T06:29:31.650Z,94.70
2022-08-25T06:32:17.251Z,94.40
2022-08-25T06:35:08.732Z,94.20
2022-08-25T06:37:54.790Z,94.20
2022-08-25T06:40:40.350Z,94.60
2022-08-25T06:43:25.973Z,93.90
2022-08-25T06:46:13.696Z,93.70
2022-08-25T06:49:00.886Z,93.50
2022-08-25T06:51:46.728Z,93.20
2022-08-25T06:54:32.575Z,92.90
2022-08-25T06:57:18.021Z,91.90
2022-08-25T07:00:08.012Z,91.50
2022-08-25T07:02:53.752Z,91.60
2022-08-25T07:05:43.932Z,91.70
2022-08-25T07:08:30.566Z,91.40
2022-08-25T07:11:17.448Z,90.90
2022-08-25T07:14:06.512Z,90.80
2022-08-25T07:16:52.582Z,90.10
2022-08-25T07:19:38.371Z,89.30
2022-08-25T07:22:26.685Z,89.20
2022-08-25T07:25:12.356Z,89.50
2022-08-25T07:27:59.075Z,88.60
2022-08-25T07:30:45.167Z,87.50
2022-08-25T07:33:37.664Z,88.40
2022-08-25T07:36:23.615Z,86.70
2022-08-25T07:39:11.179Z,86.10
2022-08-25T07:41:57.639Z,84.60
2022-08-25T07:44:43.485Z,82.80
2022-08-25T07:47:28.957Z,82.70
2022-08-25T07:50:15.160Z,83.30
2022-08-25T07:53:01.141Z,81.70
2022-08-25T07:55:47.203Z,80.70
2022-08-25T07:58:33.024Z,81.20
2022-08-25T08:01:23.927Z,78.90
2022-08-25T08:04:10.211Z,77.80
2022-08-25T08:06:57.818Z,78.80
2022-08-25T08:09:43.440Z,78.30
2022-08-25T08:12:29.120Z,77.00
2022-08-25T08:15:15.674Z,76.40
2022-08-25T08:18:01.533Z,75.20
2022-08-25T08:20:49.352Z,74.20
2022-08-25T08:23:35.206Z,77.10
2022-08-25T08:26:22.521Z,75.90
2022-08-25T08:29:23.232Z,74.30
2022-08-25T08:32:13.441Z,76.50
2022-08-25T08:34:59.151Z,72.90
2022-08-25T08:37:46.093Z,73.10
2022-08-25T08:40:38.098Z,70.90
2022-08-25T08:43:24.964Z,71.00
2022-08-25T08:46:11.549Z,72.70
2022-08-25T08:49:11.745Z,70.10
2022-08-25T08:52:01.926Z,69.20
2022-08-25T08:54:56.834Z,70.50
2022-08-25T09:00:40.504Z,69.20
2022-08-25T09:03:26.438Z,68.70
2022-08-25T09:06:28.108Z,66.40
2022-08-25T09:09:30.102Z,68.20
2022-08-25T09:12:47.474Z,68.20
2022-08-25T09:16:20.426Z,64.80
2022-08-25T09:19:37.407Z,66.10
2022-08-25T09:22:52.093Z,66.80
2022-08-25T09:25:59.973Z,64.70
2022-08-25T09:28:55.207Z,63.70
2022-08-25T09:31:42.432Z,62.40
2022-08-25T09:34:33.801Z,62.30
2022-08-25T09:37:20.097Z,63.20
2022-08-25T09:40:06.934Z,61.40
2022-08-25T09:42:57.923Z,62.50
2022-08-25T09:45:57.674Z,60.40
2022-08-25T09:48:56.073Z,62.70
2022-08-25T09:51:44.295Z,60.80
2022-08-25T09:54:43.865Z,58.40
2022-08-25T09:57:44.197Z,59.90
2022-08-25T10:00:33.729Z,61.50
2022-08-25T10:03:22.528Z,58.90
2022-08-25T10:06:14.891Z,58.60
2022-08-25T10:09:22.167Z,58.70
2022-08-25T10:12:31.592Z,57.30
2022-08-25T10:15:17.421Z,56.50
2022-08-25T10:18:22.135Z,56.60
2022-08-25T10:21:17.561Z,54.60
2022-08-25T10:24:06.080Z,53.70
2022-08-25T10:27:14.800Z,53.40
2022-08-25T10:30:23.340Z,54.10
2022-08-25T10:33:20.776Z,51.70
2022-08-25T10:36:31.268Z,52.10
2022-08-25T10:39:36.710Z,52.00
2022-08-25T10:42:43.274Z,50.60
2022-08-25T10:45:44.198Z,50.40
2022-08-25T10:49:05.316Z,47.60
2022-08-25T10:52:07.376Z,50.60
2022-08-25T10:55:06.757Z,48.20
2022-08-25T10:58:14.710Z,48.70
2022-08-25T11:01:44.086Z,48.20
2022-08-25T11:04:38.945Z,45.30
2022-08-25T11:07:44.500Z,44.50
2022-08-25T11:10:44.469Z,43.40
2022-08-25T11:13:53.217Z,46.10
2022-08-25T11:16:41.194Z,48.60
2022-08-25T11:19:41.881Z,47.70
2022-08-25T11:22:39.777Z,46.70
2022-08-25T11:25:31.491Z,43.70
2022-08-25T11:28:39.323Z,44.20
2022-08-25T11:31:28.006Z,44.20
2022-08-25T11:34:15.355Z,44.90
2022-08-25T11:37:45.959Z,42.00
2022-08-25T11:40:38.855Z,41.50
2022-08-25T11:43:26.159Z,42.30
2022-08-25T11:46:31.293Z,40.30
2022-08-25T11:49:29.111Z,40.40
2022-08-25T11:52:34.739Z,38.60
2022-08-25T11:55:39.752Z,34.20
2022-08-25T11:58:30.695Z,25.40
2022-08-25T12:01:45.326Z,20.50
2022-08-25T12:04:34.115Z,17.30
2022-08-25T12:07:49.962Z,15.10
2022-08-25T12:10:59.095Z,14.90
2022-08-25T12:13:51.932Z,14.80
2022-08-25T12:16:43.654Z,12.70
2022-08-25T12:19:38.017Z,13.80
2022-08-25T12:22:24.041Z,13.10
2022-08-25T12:25:39.163Z,13.50
2022-08-25T12:28:39.831Z,13.10
2022-08-25T12:31:59.135Z,12.70
2022-08-25T12:34:59.714Z,13.10
2022-08-25T12:38:00.641Z,13.30
2022-08-25T12:40:46.195Z,12.40
2022-08-25T12:43:44.414Z,12.70
2022-08-25T12:46:30.236Z,12.70
2022-08-25T12:49:36.072Z,12.40
2022-08-25T12:52:27.269Z,12.30
2022-08-25T12:55:14.497Z,12.50
2022-08-25T12:58:02.407Z,13.70
2022-08-25T13:01:24.565Z,13.60
2022-08-25T13:04:38.550Z,16.40
2022-08-25T13:07:47.023Z,18.10
2022-08-25T13:10:46.574Z,18.80
2022-08-25T13:13:49.082Z,19.30
2022-08-25T13:16:35.145Z,20.40
2022-08-25T13:19:22.436Z,20.60
2022-08-25T13:22:16.365Z,21.10
2022-08-25T13:25:03.937Z,21.30
2022-08-25T13:27:55.463Z,23.60
2022-08-25T13:30:41.216Z,23.50
2022-08-25T13:33:27.271Z,24.40
2022-08-25T13:36:35.590Z,25.10
2022-08-25T13:39:45.241Z,25.50
2022-08-25T13:42:30.108Z,27.20
2022-08-25T13:45:28.814Z,27.10
2022-08-25T13:48:35.067Z,26.40
2022-08-25T13:51:24.506Z,27.50
2022-08-25T13:54:28.474Z,28.00
2022-08-25T13:57:25.152Z,29.10
2022-08-25T14:00:12.008Z,28.50
2022-08-25T14:02:58.871Z,29.60
2022-08-25T14:05:45.635Z,29.50
2022-08-25T14:08:36.074Z,30.60
2022-08-25T14:11:47.038Z,31.10
2022-08-25T14:14:35.242Z,31.10
2022-08-25T14:17:38.269Z,30.60
2022-08-25T14:20:29.207Z,29.60
2022-08-25T14:23:19.520Z,30.90
2022-08-25T14:26:06.421Z,31.20
2022-08-25T14:28:52.829Z,30.20
2022-08-25T14:31:43.425Z,29.60
2022-08-25T14:34:37.086Z,30.00
2022-08-25T14:37:25.360Z,29.60
2022-08-25T14:40:19.783Z,28.00
2022-08-25T14:43:09.549Z,30.00
2022-08-25T14:45:55.822Z,28.40
2022-08-25T14:48:45.358Z,27.70
2022-08-25T14:51:33.478Z,29.20
2022-08-25T14:54:26.866Z,28.70
2022-08-25T14:57:12.358Z,29.20
2022-08-25T14:59:59.079Z,29.50
2022-08-25T15:02:49.263Z,30.20
2022-08-25T15:05:34.892Z,28.80
2022-08-25T15:08:39.103Z,30.60
2022-08-25T15:11:25.108Z,32.00
2022-08-25T15:14:15.751Z,29.20
2022-08-25T15:17:03.722Z,29.20
2022-08-25T15:19:49.058Z,26.20
2022-08-25T15:22:34.673Z,28.80
2022-08-25T15:25:22.734Z,25.90
2022-08-25T15:28:10.253Z,28.20
2022-08-25T15:30:55.969Z,25.90
2022-08-25T15:33:42.145Z,28.20
2022-08-25T15:36:28.059Z,25.90
2022-08-25T15:39:14.417Z,27.40
2022-08-25T15:42:00.115Z,28.50
2022-08-25T15:44:53.550Z,29.80
2022-08-25T15:47:39.351Z,29.90
2022-08-25T15:50:26.977Z,28.30
2022-08-25T15:53:12.424Z,26.70
2022-08-25T15:56:00.572Z,28.60
2022-08-25T15:58:51.258Z,28.90
2022-08-25T16:01:37.215Z,29.40
2022-08-25T16:04:28.052Z,30.10
2022-08-25T16:07:13.549Z,29.90
2022-08-25T16:09:59.552Z,32.30
2022-08-25T16:12:45.509Z,27.60
2022-08-25T16:15:31.820Z,29.50
2022-08-25T16:18:18.102Z,29.10
2022-08-25T16:21:03.912Z,30.40
2022-08-25T16:24:02.588Z,31.50
2022-08-25T16:26:52.000Z,31.50
2022-08-25T16:29:39.529Z,30.90
2022-08-25T16:32:25.744Z,32.50
2022-08-25T16:35:13.112Z,32.30
2022-08-25T16:37:58.810Z,31.00
2022-08-25T16:40:46.640Z,32.40
2022-08-25T16:43:32.484Z,31.00
2022-08-25T16:46:20.993Z,30.20
2022-08-25T16:49:07.009Z,32.80
2022-08-25T16:51:57.288Z,35.60
2022-08-25T16:55:01.602Z,34.30
2022-08-25T16:57:51.735Z,35.80
2022-08-25T17:00:38.882Z,34.60
2022-08-25T17:03:25.920Z,35.80
2022-08-25T17:06:14.169Z,36.90
2022-08-25T17:09:01.215Z,36.90
2022-08-25T17:11:48.330Z,36.50
2022-08-25T17:14:33.973Z,35.90
2022-08-25T17:17:20.130Z,35.10
2022-08-25T17:20:06.746Z,37.40
2022-08-25T17:22:52.561Z,38.20
2022-08-25T17:25:41.256Z,37.80
2022-08-25T17:28:29.400Z,38.20
2022-08-25T17:31:16.549Z,38.40
2022-08-25T17:34:02.335Z,37.80
2022-08-25T17:36:48.938Z,39.50
2022-08-25T17:39:34.425Z,39.90
2022-08-25T17:42:20.929Z,40.20
2022-08-25T17:45:06.816Z,40.50
2022-08-25T17:47:52.962Z,42.00
2022-08-25T17:50:40.679Z,41.00
2022-08-25T17:53:26.946Z,41.00
2022-08-25T17:56:15.995Z,41.70
2022-08-25T17:59:02.113Z,41.40
2022-08-25T18:01:49.489Z,41.30
2022-08-25T18:04:38.702Z,40.80
2022-08-25T18:07:25.668Z,42.60
2022-08-25T18:10:12.296Z,42.50
2022-08-25T18:12:58.315Z,43.90
2022-08-25T18:15:46.289Z,45.20
2022-08-25T18:18:32.440Z,44.80
2022-08-25T18:21:20.494Z,45.20
2022-08-25T18:24:06.992Z,45.20
2022-08-25T18:26:52.676Z,45.50
2022-08-25T18:29:38.373Z,46.00
2022-08-25T18:32:26.893Z,46.40
2022-08-25T18:35:14.984Z,47.00
2022-08-25T18:38:19.304Z,48.00
2022-08-25T18:41:08.256Z,47.70
2022-08-25T18:43:54.158Z,47.70
2022-08-25T18:46:42.193Z,48.00
2022-08-25T18:49:28.718Z,48.20
2022-08-25T18:52:14.853Z,47.90
2022-08-25T18:55:01.065Z,48.60
2022-08-25T18:57:47.846Z,48.50
2022-08-25T19:00:36.933Z,48.60
2022-08-25T19:03:23.544Z,49.40
2022-08-25T19:06:09.359Z,49.30
2022-08-25T19:08:55.325Z,49.60
2022-08-25T19:11:41.042Z,49.90
2022-08-25T19:14:27.415Z,50.40
2022-08-25T19:17:13.581Z,50.60
2022-08-25T19:19:59.291Z,50.50
2022-08-25T19:22:45.136Z,50.70
2022-08-25T19:25:33.211Z,51.60
2022-08-25T19:28:21.682Z,52.10
2022-08-25T19:31:08.286Z,53.00
2022-08-25T19:33:56.315Z,54.80
2022-08-25T19:36:45.514Z,55.60
2022-08-25T19:39:35.310Z,54.90
2022-08-25T19:42:37.160Z,54.90
2022-08-25T19:45:23.877Z,55.00
2022-08-25T19:48:10.757Z,54.50
2022-08-25T19:50:56.762Z,54.50
2022-08-25T19:53:43.235Z,54.90
2022-08-25T19:56:29.048Z,55.70
2022-08-25T19:59:16.548Z,55.70
2022-08-25T20:02:04.799Z,55.50
2022-08-25T20:04:56.885Z,55.40
2022-08-25T20:07:43.620Z,55.50
2022-08-25T20:10:31.799Z,56.30
2022-08-25T20:13:21.528Z,56.30
2022-08-25T20:16:09.461Z,56.20
2022-08-25T20:18:55.405Z,56.60
2022-08-25T20:21:43.220Z,56.60
2022-08-25T20:24:47.705Z,56.40
2022-08-25T20:27:36.340Z,56.70
2022-08-25T20:30:25.431Z,56.90
2022-08-25T20:33:11.717Z,57.50
2022-08-25T20:35:57.572Z,57.20
2022-08-25T20:38:44.893Z,56.90
2022-08-25T20:41:30.750Z,56.90
2022-08-25T20:44:17.655Z,57.30
2022-08-25T20:47:07.440Z,57.30
2022-08-25T20:50:00.381Z,57.40
2022-08-25T20:52:49.102Z,57.20
2022-08-25T20:55:42.315Z,57.70
2022-08-25T20:58:28.630Z,57.30
2022-08-25T21:01:37.523Z,57.70
2022-08-25T21:04:25.868Z,57.90
2022-08-25T21:07:11.797Z,58.50
2022-08-25T21:09:57.805Z,58.60
2022-08-25T21:12:45.157Z,58.40
2022-08-25T21:15:30.864Z,58.30
2022-08-25T21:18:16.472Z,58.20
2022-08-25T21:21:15.474Z,58.20
2022-08-25T21:24:04.334Z,58.20
2022-08-25T21:26:55.896Z,58.60
2022-08-25T21:29:44.712Z,58.40
2022-08-25T21:32:40.726Z,58.90
2022-08-25T21:35:40.776Z,59.50
2022-08-25T21:38:29.107Z,60.00
2022-08-25T21:41:25.904Z,60.30
2022-08-25T21:44:13.813Z,60.70
2022-08-25T21:47:01.314Z,60.90
2022-08-25T21:49:47.132Z,60.80
2022-08-25T21:52:33.940Z,61.10
2022-08-25T21:55:20.095Z,61.60
2022-08-25T21:58:08.229Z,62.50
2022-08-25T22:00:54.660Z,63.00
2022-08-25T22:03:42.417Z,63.30
2022-08-25T22:06:33.853Z,64.30
2022-08-25T22:09:19.816Z,64.90
2022-08-25T22:12:05.879Z,65.20
2022-08-25T22:14:51.768Z,65.80
2022-08-25T22:17:37.894Z,66.20
2022-08-25T22:20:25.228Z,66.70
2022-08-25T22:23:13.451Z,67.30
2022-08-25T22:26:06.848Z,67.70
2022-08-25T22:28:52.847Z,67.80
2022-08-25T22:31:38.936Z,67.90
2022-08-25T22:34:30.248Z,68.20
2022-08-25T22:37:18.026Z,68.20
2022-08-25T22:40:04.768Z,68.90
2022-08-25T22:42:50.903Z,69.00
2022-08-25T22:45:36.895Z,68.80
2022-08-25T22:48:22.862Z,69.00
2022-08-25T22:51:12.576Z,69.00
2022-08-25T22:54:02.180Z,69.40
2022-08-25T22:56:50.493Z,70.00
2022-08-25T22:59:36.774Z,70.50
2022-08-25T23:02:23.711Z,70.70
2022-08-25T23:05:11.365Z,71.90
2022-08-25T23:07:57.151Z,72.30
2022-08-25T23:10:54.925Z,72.00
2022-08-25T23:13:42.013Z,72.30
2022-08-25T23:16:28.748Z,72.10
2022-08-25T23:19:14.809Z,72.40
2022-08-25T23:22:10.575Z,72.40
2022-08-25T23:24:56.811Z,73.10
2022-08-25T23:27:42.728Z,73.20
2022-08-25T23:30:28.671Z,72.80
2022-08-25T23:33:18.819Z,72.90
2022-08-25T23:36:12.911Z,72.70
2022-08-25T23:38:58.882Z,72.70
2022-08-25T23:41:44.633Z,72.40
2022-08-25T23:44:30.553Z,72.20
2022-08-25T23:47:17.752Z,72.50
2022-08-25T23:50:03.947Z,72.10
2022-08-25T23:52:49.397Z,71.70
2022-08-25T23:55:36.475Z,71.90
2022-08-25T23:58:23.474Z,71.70
